Time;durP1;ratioP1;P1;durP2;ratioP2;P2;SDS_P1;SDS_P2;PMS_P1;PMS_P2;Temp;Humidity;BMP_temperature;BMP_pressure;BME280_temperature;BME280_humidity;BME280_pressure;Samples;Min_cycle;Max_cycle;Signal;HPM_P1;HPM_P2
2023/06/14 00:00:07;;;;;;;0.50;0.30;;;;;;;20.08;100.00;94999.63;5114041;28;20436;-65
2023/06/14 00:02:35;;;;;;;0.47;0.30;;;;;;;20.15;100.00;95005.22;5113872;28;20471;-66
2023/06/14 00:05:06;;;;;;;0.40;0.20;;;;;;;20.07;100.00;95006.13;5113757;28;20556;-65
2023/06/14 00:07:36;;;;;;;0.40;0.30;;;;;;;20.09;100.00;95000.41;5113749;28;20432;-65
2023/06/14 00:10:05;;;;;;;0.57;0.47;;;;;;;19.82;100.00;94988.41;5114085;28;20432;-65
2023/06/14 00:12:33;;;;;;;0.77;0.40;;;;;;;20.07;100.00;94994.56;5113590;28;20452;-65
2023/06/14 00:15:02;;;;;;;0.40;0.30;;;;;;;20.02;100.00;94971.38;5113937;28;20463;-65
2023/06/14 00:17:31;;;;;;;0.77;0.50;;;;;;;19.99;100.00;94996.25;5113310;28;20527;-65
2023/06/14 00:20:00;;;;;;;0.40;0.20;;;;;;;20.08;100.00;94988.09;5113450;28;20947;-65
2023/06/14 00:22:30;;;;;;;0.50;0.40;;;;;;;20.13;100.00;94977.88;5113397;28;20443;-64
2023/06/14 00:24:59;;;;;;;0.50;0.30;;;;;;;20.21;100.00;94989.66;5113236;28;20467;-65
2023/06/14 00:27:38;;;;;;;0.60;0.40;;;;;;;20.01;100.00;94975.16;5113526;28;20436;-64
2023/06/14 00:30:08;;;;;;;3.07;0.53;;;;;;;19.67;100.00;94975.63;5113173;28;20558;-64
2023/06/14 00:32:36;;;;;;;0.50;0.30;;;;;;;19.63;100.00;94972.78;5113330;28;20497;-64
2023/06/14 00:35:07;;;;;;;0.40;0.20;;;;;;;19.84;100.00;94980.78;5113622;28;20451;-64
2023/06/14 00:37:37;;;;;;;0.40;0.30;;;;;;;19.93;100.00;94976.09;5113134;28;20431;-64
2023/06/14 00:40:07;;;;;;;0.40;0.20;;;;;;;20.01;100.00;94972.47;5113387;28;20439;-64
2023/06/14 00:42:35;;;;;;;0.70;0.70;;;;;;;20.16;100.00;94971.81;5086442;28;20442;-64
2023/06/14 00:45:04;;;;;;;0.50;0.40;;;;;;;20.22;100.00;94969.66;5112756;28;20443;-63
2023/06/14 00:47:33;;;;;;;0.50;0.30;;;;;;;20.24;100.00;94965.56;5113184;28;20800;-63
2023/06/14 00:50:02;;;;;;;0.50;0.30;;;;;;;20.24;100.00;94954.78;5113297;28;20912;-63
2023/06/14 00:52:32;;;;;;;0.50;0.43;;;;;;;19.77;100.00;94959.03;5113104;28;20440;-64
2023/06/14 00:55:02;;;;;;;0.73;0.73;;;;;;;19.61;100.00;94923.97;5112672;28;20451;-63
2023/06/14 00:57:30;;;;;;;0.70;0.70;;;;;;;19.96;100.00;94956.56;5113143;28;20436;-64
2023/06/14 00:59:59;;;;;;;0.50;0.30;;;;;;;20.03;100.00;94958.72;5112719;28;20435;-63
2023/06/14 01:02:27;;;;;;;0.50;0.40;;;;;;;20.06;100.00;94950.72;5112977;28;20512;-64
2023/06/14 01:04:56;;;;;;;0.40;0.30;;;;;;;20.17;100.00;94953.75;5112609;28;20463;-63
2023/06/14 01:07:42;;;;;;;0.40;0.20;;;;;;;20.06;100.00;94953.44;5112569;28;20447;-64
2023/06/14 01:10:27;;;;;;;0.40;0.30;;;;;;;19.97;100.00;94942.00;5086016;28;20432;-64
2023/06/14 01:13:02;;;;;;;1.50;0.40;;;;;;;20.07;100.00;94957.69;5112341;28;20444;-64
2023/06/14 01:15:32;;;;;;;0.70;0.40;;;;;;;19.85;100.00;94944.69;5112974;28;20447;-64
2023/06/14 01:18:03;;;;;;;0.57;0.30;;;;;;;19.93;100.00;94954.56;5112168;28;20839;-64
2023/06/14 01:20:36;;;;;;;0.40;0.30;;;;;;;19.91;100.00;94959.47;5100446;28;20436;-64
2023/06/14 01:23:06;;;;;;;0.50;0.40;;;;;;;19.46;100.00;94959.56;5112260;28;20496;-64
2023/06/14 01:25:35;;;;;;;0.80;0.70;;;;;;;19.62;100.00;94949.72;5112478;28;20497;-62
2023/06/14 01:28:10;;;;;;;0.50;0.30;;;;;;;19.58;100.00;94964.94;5086192;28;20439;-63
2023/06/14 01:30:42;;;;;;;0.40;0.30;;;;;;;19.37;100.00;94960.78;5111536;28;20887;-63
2023/06/14 01:33:12;;;;;;;0.43;0.30;;;;;;;19.51;100.00;94966.63;5112838;28;20436;-63
2023/06/14 01:35:41;;;;;;;0.67;0.57;;;;;;;19.40;100.00;94968.19;5111929;28;20530;-63
2023/06/14 01:38:13;;;;;;;0.40;0.30;;;;;;;19.10;100.00;94972.09;5112428;28;20464;-63
2023/06/14 01:40:43;;;;;;;0.53;0.37;;;;;;;18.88;100.00;94963.28;5112011;28;20436;-63
2023/06/14 01:43:14;;;;;;;0.70;0.70;;;;;;;18.48;100.00;94964.06;5112167;28;20444;-63
2023/06/14 01:45:43;;;;;;;0.50;0.50;;;;;;;18.47;100.00;94963.28;5111686;28;20500;-63
2023/06/14 01:48:12;;;;;;;0.70;0.33;;;;;;;18.67;100.00;94962.50;5111867;28;20489;-63
2023/06/14 01:50:41;;;;;;;0.63;0.47;;;;;;;18.81;100.00;94965.72;5111722;28;20436;-63
2023/06/14 01:53:11;;;;;;;0.40;0.30;;;;;;;18.87;100.00;94961.69;5112474;28;20436;-63
2023/06/14 01:55:43;;;;;;;0.40;0.27;;;;;;;19.06;100.00;94961.22;5112151;28;20772;-64
2023/06/14 01:58:11;;;;;;;0.50;0.30;;;;;;;19.27;100.00;94950.41;5111189;28;20447;-62
2023/06/14 02:00:40;;;;;;;0.40;0.30;;;;;;;19.19;100.00;94949.41;5111572;28;21016;-62
2023/06/14 02:03:08;;;;;;;0.50;0.40;;;;;;;19.11;100.00;94957.53;5113720;28;20488;-62
2023/06/14 02:05:38;;;;;;;0.40;0.23;;;;;;;19.09;100.00;94959.78;5115122;28;20885;-62
2023/06/14 02:08:07;;;;;;;0.40;0.30;;;;;;;18.91;100.00;94959.94;5111928;28;20848;-62
2023/06/14 02:10:37;;;;;;;0.40;0.30;;;;;;;18.89;100.00;94954.13;5111813;28;20440;-62
2023/06/14 02:13:06;;;;;;;0.40;0.30;;;;;;;19.14;100.00;94964.94;5111631;28;20432;-62
2023/06/14 02:15:35;;;;;;;0.50;0.40;;;;;;;18.60;100.00;94899.72;5112435;28;20857;-62
2023/06/14 02:18:04;;;;;;;1.63;0.40;;;;;;;19.14;100.00;94962.25;5112153;28;20440;-62
2023/06/14 02:20:32;;;;;;;0.70;0.60;;;;;;;18.81;100.00;94898.59;5111967;28;20454;-62
2023/06/14 02:23:01;;;;;;;0.70;0.30;;;;;;;18.67;100.00;94918.78;5111614;28;20789;-61
2023/06/14 02:25:29;;;;;;;0.50;0.30;;;;;;;18.81;100.00;94960.34;5111879;28;20431;-62
2023/06/14 02:27:59;;;;;;;0.50;0.30;;;;;;;19.05;100.00;94950.81;5111642;28;20852;-61
2023/06/14 02:30:27;;;;;;;0.43;0.40;;;;;;;19.24;100.00;94956.47;5111101;28;20524;-61
2023/06/14 02:32:56;;;;;;;0.50;0.40;;;;;;;19.27;100.00;94955.78;5111667;28;20971;-62
2023/06/14 02:35:26;;;;;;;0.47;0.37;;;;;;;19.20;100.00;94950.94;5111607;28;20504;-61
2023/06/14 02:37:55;;;;;;;0.50;0.30;;;;;;;19.13;100.00;94955.28;5111737;28;20459;-61
2023/06/14 02:40:24;;;;;;;0.83;0.77;;;;;;;19.21;100.00;94968.66;5112097;28;20436;-61
2023/06/14 02:42:52;;;;;;;0.40;0.30;;;;;;;19.17;100.00;94967.75;5111490;28;20489;-61
2023/06/14 02:45:22;;;;;;;0.87;0.53;;;;;;;19.27;100.00;94972.72;5111662;28;20432;-61
2023/06/14 02:47:51;;;;;;;0.47;0.30;;;;;;;18.98;100.00;94980.88;5111391;28;20513;-61
2023/06/14 02:50:21;;;;;;;0.50;0.40;;;;;;;18.90;100.00;94993.25;5111304;28;20431;-61
2023/06/14 02:52:49;;;;;;;0.47;0.30;;;;;;;18.86;100.00;94992.38;5111198;28;20471;-61
2023/06/14 02:55:18;;;;;;;0.50;0.33;;;;;;;18.78;100.00;94990.53;5111301;28;20461;-61
2023/06/14 02:57:48;;;;;;;0.40;0.20;;;;;;;18.40;100.00;94993.31;5111363;28;20512;-61
2023/06/14 03:00:17;;;;;;;0.50;0.40;;;;;;;18.40;100.00;94997.88;5110903;28;20493;-61
2023/06/14 03:02:47;;;;;;;0.50;0.40;;;;;;;18.74;100.00;94988.84;5110998;28;20790;-60
2023/06/14 03:05:16;;;;;;;0.57;0.40;;;;;;;18.95;100.00;95000.31;5111752;28;20440;-61
2023/06/14 03:07:45;;;;;;;0.50;0.40;;;;;;;18.95;100.00;95003.00;5111029;28;20514;-60
2023/06/14 03:10:14;;;;;;;0.50;0.50;;;;;;;18.98;100.00;95007.72;5113808;28;20438;-60
2023/06/14 03:12:43;;;;;;;0.60;0.60;;;;;;;18.99;100.00;94998.56;5114364;28;20467;-59
2023/06/14 03:15:12;;;;;;;0.50;0.40;;;;;;;18.74;100.00;95008.41;5105952;28;20433;-60
2023/06/14 03:17:45;;;;;;;0.50;0.30;;;;;;;18.74;100.00;95018.38;5110676;28;20530;-60
2023/06/14 03:20:15;;;;;;;0.50;0.40;;;;;;;18.59;100.00;95013.59;5114396;28;20470;-60
2023/06/14 03:22:46;;;;;;;0.53;0.50;;;;;;;18.21;100.00;95011.75;5114927;28;20470;-60
2023/06/14 03:25:15;;;;;;;0.50;0.30;;;;;;;18.18;100.00;95011.59;5115201;28;20427;-60
2023/06/14 03:27:43;;;;;;;0.53;0.40;;;;;;;18.12;100.00;95010.97;5114361;28;20468;-59
2023/06/14 03:30:12;;;;;;;0.60;0.50;;;;;;;18.18;100.00;95022.31;5114544;28;20963;-59
2023/06/14 03:32:41;;;;;;;0.50;0.50;;;;;;;18.30;100.00;95025.88;5109098;28;20433;-59
2023/06/14 03:35:16;;;;;;;4.73;0.40;;;;;;;18.58;100.00;95015.47;5106912;28;20801;-60
2023/06/14 03:37:47;;;;;;;0.50;0.30;;;;;;;18.73;100.00;95017.56;5114731;28;20500;-59
2023/06/14 03:40:17;;;;;;;0.70;0.40;;;;;;;18.21;100.00;95022.47;5114199;28;20863;-59
2023/06/14 03:42:45;;;;;;;0.40;0.30;;;;;;;18.36;100.00;95024.59;5114293;28;20436;-60
2023/06/14 03:45:14;;;;;;;0.50;0.40;;;;;;;18.13;100.00;95033.22;5114085;28;20436;-59
2023/06/14 03:47:42;;;;;;;0.83;0.50;;;;;;;18.11;100.00;95038.13;5114144;28;20478;-60
2023/06/14 03:50:12;;;;;;;0.70;0.40;;;;;;;17.98;100.00;95034.56;5114134;28;20432;-59
2023/06/14 03:52:42;;;;;;;0.50;0.30;;;;;;;18.41;100.00;95028.97;5114159;28;20944;-60
2023/06/14 03:55:13;;;;;;;0.73;0.73;;;;;;;18.55;100.00;95026.84;5109527;28;20439;-60
2023/06/14 03:57:44;;;;;;;0.60;0.40;;;;;;;18.69;100.00;95024.72;5114026;28;20493;-61
2023/06/14 04:00:15;;;;;;;0.50;0.30;;;;;;;18.90;100.00;95019.34;5113643;28;20492;-59
2023/06/14 04:02:45;;;;;;;0.50;0.50;;;;;;;18.82;100.00;95026.34;5113762;28;20432;-61
2023/06/14 04:05:16;;;;;;;0.50;0.40;;;;;;;18.93;100.00;95035.59;5113630;28;20435;-61
2023/06/14 04:07:45;;;;;;;0.60;0.43;;;;;;;18.84;100.00;95029.50;5113124;28;20467;-61
2023/06/14 04:10:16;;;;;;;0.50;0.30;;;;;;;19.05;100.00;95028.72;5114191;28;20432;-63
2023/06/14 04:12:45;;;;;;;0.50;0.50;;;;;;;19.30;100.00;95027.69;5119257;28;20470;-62
2023/06/14 04:15:13;;;;;;;0.50;0.30;;;;;;;19.32;100.00;95033.50;5120229;28;20436;-63
2023/06/14 04:17:49;;;;;;;0.60;0.40;;;;;;;19.38;100.00;95027.63;5113909;28;20439;-63
2023/06/14 04:20:18;;;;;;;0.50;0.30;;;;;;;18.96;100.00;95021.50;5113681;28;20439;-64
2023/06/14 04:22:46;;;;;;;1.13;0.50;;;;;;;19.23;100.00;95024.72;5113615;28;20432;-65
2023/06/14 04:25:16;;;;;;;0.60;0.50;;;;;;;19.48;100.00;95039.88;5113642;28;20439;-63
2023/06/14 04:27:52;;;;;;;0.50;0.50;;;;;;;19.42;100.00;95038.50;5107847;28;20475;-65
2023/06/14 04:30:21;;;;;;;0.50;0.47;;;;;;;19.50;100.00;95029.56;5105603;28;20475;-64
2023/06/14 04:32:53;;;;;;;0.40;0.30;;;;;;;19.06;100.00;95030.25;5086303;28;20436;-64
2023/06/14 04:35:23;;;;;;;0.83;0.83;;;;;;;18.98;100.00;95048.03;5112878;28;20439;-64
2023/06/14 04:37:53;;;;;;;0.70;0.40;;;;;;;19.13;100.00;95052.78;5113160;28;20436;-64
2023/06/14 04:40:23;;;;;;;0.50;0.40;;;;;;;19.49;100.00;95047.59;5112722;28;20436;-65
2023/06/14 04:42:52;;;;;;;0.40;0.30;;;;;;;19.79;100.00;95056.28;5113316;28;20443;-66
2023/06/14 04:45:21;;;;;;;0.60;0.47;;;;;;;19.42;100.00;95055.44;5113183;28;20811;-66
2023/06/14 04:47:50;;;;;;;0.60;0.60;;;;;;;19.32;100.00;95057.69;5112890;28;20459;-67
2023/06/14 04:50:20;;;;;;;0.50;0.50;;;;;;;19.58;100.00;95055.59;5112839;28;20435;-68
2023/06/14 04:52:51;;;;;;;0.70;0.63;;;;;;;19.30;100.00;95059.94;5112567;28;20443;-67
2023/06/14 04:55:20;;;;;;;0.50;0.40;;;;;;;19.43;100.00;95050.84;5112775;28;20523;-68
2023/06/14 04:57:52;;;;;;;0.60;0.50;;;;;;;19.74;100.00;95061.09;5112729;28;20447;-68
2023/06/14 05:00:23;;;;;;;0.90;0.90;;;;;;;20.10;100.00;95064.66;5112827;28;20812;-69
2023/06/14 05:02:53;;;;;;;0.90;0.80;;;;;;;20.45;100.00;95067.72;5112552;28;20966;-70
2023/06/14 05:05:21;;;;;;;0.40;0.30;;;;;;;20.52;100.00;95067.13;5112642;28;20514;-71
2023/06/14 05:07:50;;;;;;;0.40;0.40;;;;;;;20.48;100.00;95074.34;5112448;28;20459;-73
2023/06/14 05:10:18;;;;;;;0.87;0.67;;;;;;;20.62;100.00;95056.69;5113257;28;20846;-74
2023/06/14 05:12:47;;;;;;;0.50;0.37;;;;;;;20.92;100.00;95068.00;5112840;28;20454;-76
2023/06/14 05:15:17;;;;;;;0.40;0.30;;;;;;;20.72;100.00;95033.94;5113228;28;20436;-76
2023/06/14 05:17:52;;;;;;;0.40;0.30;;;;;;;21.02;100.00;95059.44;5112691;28;20489;-77
2023/06/14 05:20:22;;;;;;;0.40;0.30;;;;;;;21.08;100.00;95071.56;5113446;28;20501;-78
2023/06/14 05:22:52;;;;;;;2.80;1.20;;;;;;;20.72;100.00;95069.72;5112740;28;20432;-77
2023/06/14 05:25:20;;;;;;;0.97;0.87;;;;;;;20.82;100.00;95066.53;5112817;28;20946;-77
2023/06/14 05:27:49;;;;;;;0.40;0.30;;;;;;;20.90;100.00;95038.69;5112367;28;20471;-77
2023/06/14 05:30:19;;;;;;;5.10;2.93;;;;;;;20.78;100.00;95072.97;5111965;28;21006;-76
2023/06/14 05:32:47;;;;;;;4.53;1.73;;;;;;;20.29;100.00;95080.25;5112284;28;20432;-74
2023/06/14 05:35:16;;;;;;;1.00;0.93;;;;;;;20.52;100.00;95081.41;5111986;28;20920;-74
2023/06/14 05:37:45;;;;;;;3.70;0.83;;;;;;;20.47;100.00;95083.53;5112117;28;20436;-74
2023/06/14 05:40:14;;;;;;;1.03;1.03;;;;;;;20.12;100.00;95083.94;5111822;28;20436;-72
2023/06/14 05:42:42;;;;;;;1.50;0.67;;;;;;;20.49;100.00;95078.59;5111985;28;20432;-71
2023/06/14 05:45:11;;;;;;;0.50;0.50;;;;;;;21.03;100.00;95082.56;5111681;28;20447;-69
2023/06/14 05:47:41;;;;;;;0.50;0.30;;;;;;;20.83;100.00;94959.59;5112364;28;20784;-69
2023/06/14 05:50:10;;;;;;;0.83;0.63;;;;;;;21.77;100.00;95075.78;5111871;28;20447;-70
2023/06/14 05:52:38;;;;;;;1.00;1.00;;;;;;;21.36;100.00;95085.88;5112127;28;20815;-69
2023/06/14 05:55:07;;;;;;;0.83;0.83;;;;;;;20.75;100.00;95087.88;5109188;28;20868;-68
2023/06/14 05:57:36;;;;;;;1.17;1.07;;;;;;;21.36;100.00;95088.56;5102075;28;20497;-69
2023/06/14 06:00:10;;;;;;;1.27;1.17;;;;;;;21.36;100.00;95087.78;5111987;28;20820;-69
2023/06/14 06:02:40;;;;;;;0.50;0.47;;;;;;;22.14;100.00;95042.09;5111947;28;21014;-70
2023/06/14 06:05:09;;;;;;;1.07;0.97;;;;;;;22.43;100.00;95086.75;5111601;28;20439;-71
2023/06/14 06:07:37;;;;;;;0.70;0.70;;;;;;;22.71;96.79;95087.47;5111954;28;20493;-70
2023/06/14 06:10:06;;;;;;;0.50;0.40;;;;;;;23.10;93.12;95081.00;5108591;28;20440;-70
2023/06/14 06:12:35;;;;;;;0.40;0.30;;;;;;;23.19;90.68;95075.38;5111824;28;20440;-69
2023/06/14 06:15:04;;;;;;;1.00;0.67;;;;;;;23.17;90.69;95083.84;5085181;28;20446;-69
2023/06/14 06:17:32;;;;;;;1.00;0.90;;;;;;;23.47;89.26;95081.41;5111461;28;20435;-68
2023/06/14 06:20:27;;;;;;;0.90;0.70;;;;;;;23.30;92.13;95082.56;5111550;28;20444;-68
2023/06/14 06:22:57;;;;;;;0.63;0.63;;;;;;;23.74;89.05;95085.81;5111789;28;20484;-67
2023/06/14 06:25:27;;;;;;;0.60;0.60;;;;;;;23.68;87.08;95086.47;5131720;28;20513;-64
2023/06/14 06:27:57;;;;;;;0.40;0.30;;;;;;;24.11;84.39;95071.81;5112012;28;20436;-67
2023/06/14 06:30:26;;;;;;;0.87;0.87;;;;;;;24.06;85.13;95088.31;5111526;28;20986;-65
2023/06/14 06:32:55;;;;;;;1.27;0.77;;;;;;;23.52;88.80;95091.94;5085329;28;20432;-66
2023/06/14 06:35:25;;;;;;;0.50;0.40;;;;;;;24.29;83.28;95079.06;5110936;28;20436;-63
2023/06/14 06:37:54;;;;;;;0.50;0.30;;;;;;;24.69;82.74;95080.50;5111237;28;20974;-64
2023/06/14 06:40:22;;;;;;;0.73;0.70;;;;;;;24.19;82.20;95085.09;5111295;28;20528;-64
2023/06/14 06:42:51;;;;;;;0.83;0.83;;;;;;;24.08;81.65;95077.94;5111549;28;20436;-59
2023/06/14 06:45:19;;;;;;;0.50;0.40;;;;;;;24.34;80.71;95083.41;5115098;28;20827;-59
2023/06/14 06:47:50;;;;;;;0.40;0.30;;;;;;;23.94;81.27;95062.19;5114760;28;20443;-58
2023/06/14 06:50:19;;;;;;;1.10;1.10;;;;;;;24.31;77.53;95086.88;5114291;28;20477;-59
2023/06/14 06:52:50;;;;;;;0.70;0.60;;;;;;;24.81;77.46;95081.09;5114850;28;20898;-58
2023/06/14 06:55:18;;;;;;;0.40;0.37;;;;;;;25.86;74.09;95083.63;5114726;28;21020;-59
2023/06/14 06:57:47;;;;;;;0.80;0.70;;;;;;;25.42;71.77;95080.78;5114793;28;20585;-58
2023/06/14 07:00:16;;;;;;;1.10;0.70;;;;;;;24.90;71.72;95072.69;5113522;28;20436;-59
2023/06/14 07:02:45;;;;;;;0.50;0.47;;;;;;;25.94;70.46;95068.19;5114819;28;20500;-60
2023/06/14 07:05:14;;;;;;;0.80;0.80;;;;;;;25.79;69.38;95075.41;5115059;28;20807;-60
2023/06/14 07:07:43;;;;;;;0.80;0.80;;;;;;;25.53;68.64;95015.78;5114996;28;20476;-60
2023/06/14 07:10:12;;;;;;;0.50;0.37;;;;;;;26.79;64.81;95075.97;5114690;28;20475;-59
2023/06/14 07:12:41;;;;;;;0.80;0.40;;;;;;;27.30;63.42;95045.97;5114663;28;20450;-58
2023/06/14 07:15:10;;;;;;;1.07;0.70;;;;;;;26.49;62.93;95076.13;5114899;28;20747;-59
2023/06/14 07:17:39;;;;;;;0.60;0.60;;;;;;;26.07;65.16;95073.00;5114230;28;20448;-59
2023/06/14 07:20:11;;;;;;;3.03;0.60;;;;;;;26.69;64.25;95070.47;5114588;28;20436;-59
2023/06/14 07:22:41;;;;;;;1.07;1.03;;;;;;;27.17;64.27;95066.53;5114933;28;20440;-59
2023/06/14 07:25:13;;;;;;;0.73;0.50;;;;;;;26.60;62.35;95068.06;5113992;28;20482;-59
2023/06/14 07:27:44;;;;;;;0.80;0.80;;;;;;;27.15;62.40;95060.66;5109772;28;20752;-59
2023/06/14 07:30:13;;;;;;;0.90;0.90;;;;;;;27.27;61.44;95065.81;5105358;28;20994;-59
2023/06/14 07:32:42;;;;;;;0.77;0.70;;;;;;;27.54;58.68;95044.53;5114288;28;20505;-60
2023/06/14 07:35:10;;;;;;;1.07;0.97;;;;;;;27.53;59.72;95057.38;5114169;28;20440;-61
2023/06/14 07:37:38;;;;;;;1.07;0.97;;;;;;;27.38;59.62;95063.09;5113655;28;20436;-61
2023/06/14 07:40:10;;;;;;;1.30;1.20;;;;;;;27.58;59.33;95045.31;5114676;28;20474;-60
2023/06/14 07:42:40;;;;;;;0.50;0.40;;;;;;;27.33;59.83;95039.75;5113883;28;20442;-60
2023/06/14 07:45:09;;;;;;;0.40;0.40;;;;;;;26.82;60.76;95037.16;5114297;28;20852;-59
2023/06/14 07:47:37;;;;;;;0.37;0.30;;;;;;;28.11;59.40;95049.00;5113968;28;20963;-60
2023/06/14 07:50:06;;;;;;;0.97;0.80;;;;;;;28.67;58.25;95064.63;5113555;28;20471;-59
2023/06/14 07:52:35;;;;;;;0.47;0.40;;;;;;;28.67;55.63;95064.63;5113885;28;20438;-59
2023/06/14 07:55:04;;;;;;;0.90;0.90;;;;;;;28.28;57.22;95064.59;5113244;28;20443;-59
2023/06/14 07:57:32;;;;;;;0.40;0.30;;;;;;;28.77;55.64;95025.66;5113892;28;20489;-59
2023/06/14 08:00:06;;;;;;;0.60;0.60;;;;;;;27.82;54.98;95063.69;5113858;28;20543;-59
2023/06/14 08:02:34;;;;;;;0.90;0.60;;;;;;;28.03;55.64;95068.47;5114202;28;20436;-59
2023/06/14 08:05:03;;;;;;;0.50;0.50;;;;;;;27.91;58.18;95068.75;5114144;28;20443;-60
2023/06/14 08:07:31;;;;;;;0.50;0.40;;;;;;;28.82;55.79;95068.13;5113573;28;20440;-60
2023/06/14 08:10:00;;;;;;;0.40;0.30;;;;;;;29.45;53.50;95056.28;5112784;28;20502;-59
2023/06/14 08:12:29;;;;;;;0.50;0.50;;;;;;;29.19;54.20;95073.91;5113819;28;20439;-60
2023/06/14 08:14:57;;;;;;;0.83;0.83;;;;;;;29.39;53.59;95063.34;5113068;28;20442;-60
2023/06/14 08:17:45;;;;;;;0.47;0.47;;;;;;;29.13;56.57;95055.59;5113625;28;20427;-60
2023/06/14 08:20:16;;;;;;;0.53;0.53;;;;;;;29.93;53.04;95051.81;5113675;28;20466;-60
2023/06/14 08:22:46;;;;;;;0.50;0.40;;;;;;;29.99;51.53;95047.50;5113229;28;20522;-60
2023/06/14 08:25:14;;;;;;;0.40;0.33;;;;;;;29.48;52.11;95063.72;5113488;28;20970;-60
2023/06/14 08:27:44;;;;;;;0.73;0.73;;;;;;;28.32;53.58;95078.22;5113179;28;20432;-60
2023/06/14 08:30:13;;;;;;;0.40;0.40;;;;;;;28.98;54.05;95070.44;5113018;28;20479;-60
2023/06/14 08:32:42;;;;;;;1.10;1.10;;;;;;;28.07;55.67;95072.75;5112580;28;20474;-61
2023/06/14 08:35:12;;;;;;;0.53;0.50;;;;;;;27.83;56.37;95069.94;5113264;28;20923;-60
2023/06/14 08:37:41;;;;;;;0.40;0.30;;;;;;;28.02;56.04;95072.34;5113394;28;20435;-60
2023/06/14 08:40:25;;;;;;;0.57;0.57;;;;;;;29.25;54.98;95069.63;5112991;28;20449;-59
2023/06/14 08:42:54;;;;;;;0.60;0.60;;;;;;;29.32;54.21;95064.13;5113080;28;20489;-59
2023/06/14 08:45:24;;;;;;;0.40;0.30;;;;;;;28.68;54.96;95003.47;5109538;28;20472;-60
2023/06/14 08:47:59;;;;;;;0.57;0.57;;;;;;;27.92;57.88;95068.41;5103821;28;20547;-61
2023/06/14 08:50:31;;;;;;;0.50;0.50;;;;;;;27.57;60.32;95071.00;5112457;28;20467;-62
2023/06/14 08:53:02;;;;;;;0.50;0.50;;;;;;;27.02;62.67;95064.84;5112958;28;20428;-62
2023/06/14 08:55:34;;;;;;;0.50;0.40;;;;;;;27.63;62.35;95072.19;5113183;28;20509;-61
2023/06/14 08:58:05;;;;;;;0.80;0.50;;;;;;;27.12;65.39;95080.50;5112661;28;20446;-60
2023/06/14 09:00:34;;;;;;;1.03;0.53;;;;;;;26.71;65.46;95079.00;5112607;28;20498;-60
2023/06/14 09:03:03;;;;;;;0.50;0.47;;;;;;;27.23;64.05;95067.72;5112426;28;20449;-61
2023/06/14 09:05:33;;;;;;;0.80;0.80;;;;;;;26.29;67.61;95068.56;5112800;28;20448;-59
2023/06/14 09:08:02;;;;;;;0.60;0.50;;;;;;;26.93;66.31;95058.97;5112797;28;20443;-61
2023/06/14 09:10:35;;;;;;;0.40;0.40;;;;;;;27.39;63.96;95049.16;5112373;28;20475;-60
2023/06/14 09:13:04;;;;;;;0.70;0.70;;;;;;;26.84;65.66;95053.13;5112336;28;20467;-60
2023/06/14 09:15:32;;;;;;;0.40;0.40;;;;;;;27.12;64.38;95052.50;5112261;28;20943;-60
2023/06/14 09:18:02;;;;;;;0.80;0.80;;;;;;;27.18;63.88;95054.47;5112395;28;20440;-61
2023/06/14 09:20:33;;;;;;;0.50;0.40;;;;;;;26.70;63.91;95048.31;5111970;28;20877;-61
2023/06/14 09:23:02;;;;;;;0.50;0.30;;;;;;;26.56;63.82;95039.28;5112243;28;20447;-62
2023/06/14 09:25:30;;;;;;;0.70;0.50;;;;;;;27.42;61.37;95042.97;5112494;28;20943;-60
2023/06/14 09:28:08;;;;;;;0.40;0.30;;;;;;;26.89;62.26;94988.25;5104542;28;20436;-61
2023/06/14 09:30:38;;;;;;;0.60;0.40;;;;;;;28.24;59.38;95035.78;5106763;28;20999;-60
2023/06/14 09:33:07;;;;;;;0.40;0.40;;;;;;;29.17;57.32;94991.63;5112284;28;20446;-60
2023/06/14 09:35:37;;;;;;;0.60;0.40;;;;;;;30.11;53.43;95040.78;5111916;28;20439;-60
2023/06/14 09:38:06;;;;;;;0.50;0.40;;;;;;;29.64;54.30;95036.72;5111932;28;20446;-55
2023/06/14 09:40:39;;;;;;;0.40;0.30;;;;;;;30.85;52.11;95037.47;5111835;28;20464;-56
2023/06/14 09:43:09;;;;;;;0.50;0.30;;;;;;;31.43;50.83;95026.31;5111896;28;20443;-55
2023/06/14 09:45:40;;;;;;;0.40;0.33;;;;;;;29.77;49.36;95013.25;5111971;28;20432;-55
2023/06/14 09:48:09;;;;;;;0.40;0.40;;;;;;;29.84;48.22;94976.94;5111767;27;20431;-55
2023/06/14 09:50:40;;;;;;;0.30;0.30;;;;;;;29.97;48.94;95025.25;5111904;28;20471;-60
2023/06/14 09:53:12;;;;;;;2.97;0.50;;;;;;;28.28;50.01;94982.81;5111861;28;20431;-60
2023/06/14 09:55:42;;;;;;;1.33;0.90;;;;;;;28.05;50.91;95025.25;5111747;28;20440;-61
2023/06/14 09:58:12;;;;;;;0.50;0.47;;;;;;;28.02;52.01;95023.28;5110058;28;20518;-59
2023/06/14 10:00:43;;;;;;;0.57;0.40;;;;;;;28.20;52.71;95018.66;5100039;28;20448;-61
2023/06/14 10:03:14;;;;;;;0.50;0.30;;;;;;;28.21;53.77;95012.78;5111085;28;20451;-61
2023/06/14 10:05:46;;;;;;;0.40;0.30;;;;;;;28.77;53.09;95013.97;5111942;28;20435;-61
2023/06/14 10:08:17;;;;;;;0.30;0.20;;;;;;;28.80;54.02;95008.50;5111026;28;20523;-59
2023/06/14 10:10:46;;;;;;;0.60;0.40;;;;;;;28.68;56.21;95003.47;5111798;28;20507;-60
2023/06/14 10:13:15;;;;;;;1.40;0.40;;;;;;;29.57;56.34;95002.00;5111307;28;20515;-59
2023/06/14 10:15:52;;;;;;;0.93;0.50;;;;;;;29.16;54.64;95005.69;5111513;28;20447;-60
2023/06/14 10:18:29;;;;;;;0.40;0.40;;;;;;;28.23;57.06;95010.44;5112592;28;20951;-60
2023/06/14 10:21:08;;;;;;;0.50;0.40;;;;;;;28.97;54.65;95008.88;5115144;28;20439;-58
2023/06/14 10:23:42;;;;;;;0.70;0.70;;;;;;;30.01;54.33;95017.00;5115747;28;20489;-60
2023/06/14 10:26:21;;;;;;;2.30;0.47;;;;;;;30.21;52.63;95000.88;5115482;28;20526;-61
2023/06/14 10:29:01;;;;;;;0.70;0.60;;;;;;;29.31;55.47;94996.28;5115243;28;20491;-63
2023/06/14 10:31:44;;;;;;;1.27;1.17;;;;;;;28.39;58.92;94998.41;5115494;28;20478;-65
2023/06/14 10:34:23;;;;;;;0.40;0.30;;;;;;;27.78;58.55;94999.50;5115821;28;20938;-65
2023/06/14 10:37:04;;;;;;;0.60;0.50;;;;;;;26.64;60.51;94967.50;5115654;28;20826;-66
2023/06/14 10:39:37;;;;;;;0.53;0.50;;;;;;;26.51;63.07;95009.75;5091837;28;20496;-64
2023/06/14 10:42:06;;;;;;;0.97;0.67;;;;;;;26.78;63.86;95014.63;5115515;28;20442;-65
2023/06/14 10:44:43;;;;;;;0.70;0.50;;;;;;;27.47;62.91;95018.09;5115287;28;20435;-64
2023/06/14 10:47:22;;;;;;;0.50;0.40;;;;;;;26.55;65.25;95016.75;5115373;28;20441;-63
2023/06/14 10:49:53;;;;;;;0.50;0.40;;;;;;;26.70;67.02;95012.97;5115194;28;20522;-63
2023/06/14 10:52:28;;;;;;;1.10;1.00;;;;;;;26.81;65.39;95013.84;5115076;28;20986;-60
2023/06/14 10:55:09;;;;;;;1.20;0.90;;;;;;;28.03;62.90;95005.78;5117774;28;20439;-62
2023/06/14 10:57:39;;;;;;;0.50;0.40;;;;;;;27.79;61.31;95006.47;5116007;28;20436;-63
2023/06/14 11:00:21;;;;;;;0.40;0.30;;;;;;;27.96;58.77;94951.25;5114960;28;21137;-63
2023/06/14 11:03:16;;;;;;;0.37;0.30;;;;;;;28.95;57.14;94995.59;5114761;28;20940;-62
2023/06/14 11:05:52;;;;;;;7.30;0.53;;;;;;;29.06;56.36;95001.03;5115418;28;20435;-64
2023/06/14 11:11:17;;;;;;;0.57;0.50;;;;;;;30.21;54.50;94984.47;5089110;27;20567;-63
2023/06/14 11:13:47;;;;;;;0.73;0.73;;;;;;;31.27;52.52;94982.28;5088956;28;20509;-63
2023/06/14 11:16:16;;;;;;;0.60;0.50;;;;;;;30.91;53.48;94970.19;5088894;28;20474;-65
2023/06/14 11:18:45;;;;;;;0.83;0.73;;;;;;;30.25;51.71;94986.00;5088875;28;20478;-66
2023/06/14 11:21:18;;;;;;;0.50;0.50;;;;;;;31.26;52.99;94969.78;5088737;28;20964;-65
2023/06/14 11:23:56;;;;;;;0.77;0.77;;;;;;;30.46;51.64;94944.06;5089283;28;20433;-65
2023/06/14 11:26:30;;;;;;;0.57;0.57;;;;;;;31.50;48.97;94972.66;5088933;28;20440;-65
2023/06/14 11:29:00;;;;;;;0.40;0.40;;;;;;;31.13;47.03;94908.53;5088493;28;20435;-65
2023/06/14 11:31:29;;;;;;;1.43;0.33;;;;;;;31.14;48.02;94972.28;5089015;28;20802;-64
2023/06/14 11:33:59;;;;;;;0.60;0.60;;;;;;;29.57;47.21;94799.16;5088690;28;20440;-64
2023/06/14 11:36:29;;;;;;;0.70;0.70;;;;;;;31.50;47.75;94956.22;5089158;28;20440;-64
2023/06/14 11:39:00;;;;;;;0.50;0.40;;;;;;;32.03;46.26;94957.03;5088696;28;20440;-64
2023/06/14 11:41:37;;;;;;;0.40;0.30;;;;;;;32.44;46.00;94942.25;5088933;28;20432;-64
2023/06/14 11:44:06;;;;;;;0.40;0.30;;;;;;;32.13;47.80;94951.81;5088155;28;20440;-64
2023/06/14 11:46:35;;;;;;;0.40;0.40;;;;;;;30.98;47.45;94956.44;5089029;28;20447;-65